createdAt,value
2022-08-26T00:04:38.184Z,80.78
2022-08-26T00:09:41.553Z,80.88
2022-08-26T00:14:50.402Z,80.92
2022-08-26T00:19:53.808Z,80.65
2022-08-26T00:24:57.016Z,80.62
2022-08-26T00:30:09.971Z,80.67
2022-08-26T00:35:14.615Z,80.65
2022-08-26T00:40:27.223Z,80.98
2022-08-26T00:45:45.441Z,81.09
2022-08-26T00:50:56.749Z,81.35
2022-08-26T00:56:11.785Z,81.03
2022-08-26T01:01:18.737Z,80.86
2022-08-26T01:06:27.524Z,80.96
2022-08-26T01:11:32.705Z,81.21
2022-08-26T01:16:37.373Z,81.18
2022-08-26T01:22:22.800Z,81.07
2022-08-26T01:27:33.627Z,81.17
2022-08-26T01:32:38.855Z,81.00
2022-08-26T01:37:42.382Z,80.89
2022-08-26T01:42:47.000Z,80.62
2022-08-26T01:47:56.770Z,81.00
2022-08-26T01:53:07.779Z,81.08
2022-08-26T01:58:28.679Z,81.00
2022-08-26T02:03:34.059Z,80.67
2022-08-26T02:08:48.130Z,80.99
2022-08-26T02:14:03.099Z,81.04
2022-08-26T02:19:17.233Z,81.10
2022-08-26T02:24:29.419Z,81.05
2022-08-26T02:29:41.690Z,80.95
2022-08-26T02:34:47.066Z,81.16
2022-08-26T02:39:50.337Z,81.13
2022-08-26T02:44:56.334Z,81.50
2022-08-26T02:50:00.616Z,81.63
2022-08-26T02:55:07.260Z,81.75
2022-08-26T03:00:14.937Z,81.75
2022-08-26T03:05:19.942Z,81.68
2022-08-26T03:10:25.977Z,81.72
2022-08-26T03:15:29.523Z,81.74
2022-08-26T03:20:34.307Z,81.96
2022-08-26T03:25:38.080Z,81.78
2022-08-26T03:30:44.874Z,81.89
2022-08-26T03:35:50.575Z,82.04
2022-08-26T03:40:54.214Z,82.08
2022-08-26T03:45:57.587Z,82.38
2022-08-26T03:51:03.138Z,82.73
2022-08-26T03:56:06.970Z,82.92
2022-08-26T04:01:12.500Z,82.75
2022-08-26T04:06:17.115Z,82.32
2022-08-26T04:11:24.897Z,82.26
2022-08-26T04:16:29.649Z,82.47
2022-08-26T04:21:33.652Z,82.47
2022-08-26T04:26:39.583Z,82.32
2022-08-26T04:31:48.304Z,82.41
2022-08-26T04:36:52.184Z,82.25
2022-08-26T04:41:55.995Z,82.22
2022-08-26T04:47:02.949Z,82.32
2022-08-26T04:52:06.519Z,82.39
2022-08-26T04:57:11.085Z,82.31
2022-08-26T05:02:14.472Z,82.29
2022-08-26T05:07:17.742Z,82.31
2022-08-26T05:12:21.200Z,82.17
2022-08-26T05:17:24.617Z,82.13
2022-08-26T05:22:27.822Z,82.20
2022-08-26T05:27:30.924Z,82.25
2022-08-26T05:32:36.181Z,81.94
2022-08-26T05:37:39.523Z,82.17
2022-08-26T05:42:43.007Z,81.84
2022-08-26T05:47:46.996Z,81.15
2022-08-26T05:52:51.404Z,80.78
2022-08-26T05:57:54.579Z,79.35
2022-08-26T06:02:58.831Z,77.97
2022-08-26T06:08:14.618Z,77.15
2022-08-26T06:13:31.871Z,76.32
2022-08-26T06:18:42.515Z,74.98
2022-08-26T06:24:07.465Z,74.99
2022-08-26T06:29:10.765Z,74.39
2022-08-26T06:34:18.991Z,74.14
2022-08-26T06:39:22.199Z,73.51
2022-08-26T06:44:26.227Z,73.63
2022-08-26T06:49:29.447Z,72.86
2022-08-26T06:54:33.190Z,73.26
2022-08-26T06:59:36.571Z,72.79
2022-08-26T07:04:40.218Z,71.89
2022-08-26T07:09:43.706Z,69.60
2022-08-26T07:14:47.455Z,69.54
2022-08-26T07:19:51.965Z,68.27
2022-08-26T07:24:56.109Z,67.98
2022-08-26T07:30:00.534Z,67.46
2022-08-26T07:35:06.821Z,66.67
2022-08-26T07:40:10.832Z,66.15
2022-08-26T07:45:15.184Z,66.46
2022-08-26T07:50:18.692Z,65.97
2022-08-26T07:55:23.133Z,65.40
2022-08-26T08:00:26.746Z,65.44
2022-08-26T08:05:33.914Z,65.11
2022-08-26T08:10:38.398Z,65.58
2022-08-26T08:15:42.631Z,65.56
2022-08-26T08:20:59.300Z,64.63
2022-08-26T08:26:11.212Z,64.07
2022-08-26T08:31:55.751Z,63.67
2022-08-26T08:36:53.279Z,61.79
2022-08-26T08:42:25.087Z,60.35
2022-08-26T08:48:00.965Z,59.21
2022-08-26T08:53:13.202Z,57.96
2022-08-26T08:58:33.409Z,57.10
2022-08-26T09:04:28.544Z,56.49
2022-08-26T09:09:49.368Z,57.14
2022-08-26T09:15:11.731Z,55.47
2022-08-26T09:20:43.472Z,54.74
2022-08-26T09:25:57.597Z,52.78
2022-08-26T09:31:34.292Z,51.76
2022-08-26T09:36:45.330Z,50.54
2022-08-26T09:42:01.638Z,50.10
2022-08-26T09:47:08.846Z,49.35
2022-08-26T09:52:26.928Z,48.90
2022-08-26T09:57:35.336Z,48.26
2022-08-26T10:02:47.746Z,47.38
2022-08-26T10:07:53.700Z,48.22
2022-08-26T10:13:16.595Z,48.71
2022-08-26T10:18:33.672Z,47.95
2022-08-26T10:23:50.359Z,46.63
2022-08-26T10:29:15.889Z,46.94
2022-08-26T10:34:21.160Z,47.04
2022-08-26T10:39:57.312Z,47.81
2022-08-26T10:45:15.107Z,47.95
2022-08-26T10:50:31.702Z,48.30
2022-08-26T10:55:45.557Z,48.38
2022-08-26T11:01:18.988Z,48.67
2022-08-26T11:06:31.575Z,48.02
2022-08-26T11:11:41.007Z,48.56
2022-08-26T11:16:52.236Z,48.63
2022-08-26T11:22:24.284Z,49.20
2022-08-26T11:27:27.655Z,48.69
2022-08-26T11:32:34.867Z,48.19
2022-08-26T11:37:48.602Z,45.99
2022-08-26T11:42:59.838Z,45.05
2022-08-26T11:48:23.919Z,44.11
2022-08-26T11:53:30.383Z,44.13
2022-08-26T11:58:35.684Z,42.31
2022-08-26T12:03:51.425Z,41.01
2022-08-26T12:09:01.690Z,40.92
2022-08-26T12:14:15.579Z,40.18
2022-08-26T12:19:32.900Z,40.19
2022-08-26T12:24:44.022Z,39.36
2022-08-26T12:30:13.840Z,38.40
2022-08-26T12:35:21.244Z,37.69
2022-08-26T12:40:37.597Z,38.39
2022-08-26T12:45:55.180Z,36.74
2022-08-26T12:51:00.642Z,37.61
2022-08-26T12:56:41.485Z,38.70
2022-08-26T13:01:45.836Z,37.13
2022-08-26T13:06:49.225Z,38.84
2022-08-26T13:11:55.402Z,38.01
2022-08-26T13:16:58.710Z,38.69
2022-08-26T13:22:02.227Z,37.08
2022-08-26T13:27:08.823Z,38.03
2022-08-26T13:32:12.638Z,38.03
2022-08-26T13:37:16.875Z,37.90
2022-08-26T13:42:21.643Z,38.58
2022-08-26T13:47:27.639Z,37.22
2022-08-26T13:52:31.538Z,38.99
2022-08-26T13:57:35.029Z,39.61
2022-08-26T14:02:38.246Z,41.15
2022-08-26T14:07:41.600Z,42.98
2022-08-26T14:12:46.087Z,44.65
2022-08-26T14:17:50.669Z,44.90
2022-08-26T14:23:13.292Z,46.20
2022-08-26T14:28:18.704Z,45.65
2022-08-26T14:33:29.102Z,45.08
2022-08-26T14:38:34.188Z,45.17
2022-08-26T14:43:43.237Z,45.47
2022-08-26T14:48:46.586Z,44.37
2022-08-26T14:54:10.376Z,43.90
2022-08-26T14:59:25.557Z,41.65
2022-08-26T15:04:30.478Z,41.37
2022-08-26T15:09:37.917Z,39.60
2022-08-26T15:14:41.196Z,39.17
2022-08-26T15:19:44.610Z,38.31
2022-08-26T15:24:48.060Z,38.81
2022-08-26T15:29:57.064Z,38.83
2022-08-26T15:35:00.574Z,38.56
2022-08-26T15:40:07.130Z,39.81
2022-08-26T15:45:11.506Z,40.15
2022-08-26T15:50:29.913Z,40.08
2022-08-26T15:55:33.173Z,40.33
2022-08-26T16:00:38.117Z,40.52
2022-08-26T16:05:43.873Z,40.06
2022-08-26T16:10:50.517Z,41.22
2022-08-26T16:15:54.051Z,42.92
2022-08-26T16:21:12.460Z,43.90
2022-08-26T16:26:22.259Z,43.19
2022-08-26T16:31:25.610Z,44.51
2022-08-26T16:36:29.258Z,47.52
2022-08-26T16:41:33.498Z,46.81
2022-08-26T16:46:36.919Z,46.35
2022-08-26T16:51:40.722Z,49.54
2022-08-26T16:56:44.343Z,51.42
2022-08-26T17:01:47.691Z,50.87
2022-08-26T17:06:51.171Z,52.17
2022-08-26T17:11:54.995Z,53.87
2022-08-26T17:16:58.205Z,55.47
2022-08-26T17:22:01.512Z,54.87
2022-08-26T17:27:09.120Z,54.72
2022-08-26T17:32:12.468Z,54.90
2022-08-26T17:37:17.068Z,56.19
2022-08-26T17:42:20.396Z,56.60
2022-08-26T17:47:24.004Z,56.81
2022-08-26T17:52:29.046Z,56.77
2022-08-26T17:57:32.790Z,57.19
2022-08-26T18:02:44.271Z,57.21
2022-08-26T18:07:48.718Z,56.85
2022-08-26T18:12:52.161Z,56.94
2022-08-26T18:17:55.331Z,57.63
2022-08-26T18:22:58.544Z,58.06
2022-08-26T18:28:01.750Z,58.92
2022-08-26T18:33:05.092Z,59.21
2022-08-26T18:38:11.014Z,59.37
2022-08-26T18:43:14.780Z,59.58
2022-08-26T18:48:17.962Z,58.90
2022-08-26T18:53:21.486Z,59.84
2022-08-26T18:58:25.609Z,60.55
2022-08-26T19:03:29.026Z,61.43
2022-08-26T19:08:32.475Z,61.45
2022-08-26T19:13:36.567Z,61.87
2022-08-26T19:18:41.447Z,62.19
2022-08-26T19:23:45.033Z,62.50
2022-08-26T19:28:49.696Z,62.88
2022-08-26T19:33:53.293Z,62.87
2022-08-26T19:38:57.124Z,63.13
2022-08-26T19:44:02.804Z,63.65
2022-08-26T19:49:07.942Z,64.38
2022-08-26T19:54:11.251Z,64.66
2022-08-26T19:59:15.486Z,65.29
2022-08-26T20:04:18.724Z,65.67
2022-08-26T20:09:22.000Z,65.75
2022-08-26T20:14:27.678Z,65.64
2022-08-26T20:19:49.841Z,65.44
2022-08-26T20:24:53.346Z,65.38
2022-08-26T20:29:58.005Z,65.57
2022-08-26T20:35:01.926Z,66.07
2022-08-26T20:40:09.069Z,66.39
2022-08-26T20:45:12.475Z,66.71
2022-08-26T20:50:15.945Z,67.18
2022-08-26T20:55:20.110Z,67.50
2022-08-26T21:00:26.974Z,67.50
2022-08-26T21:05:32.267Z,67.48
2022-08-26T21:10:36.352Z,67.69
2022-08-26T21:15:40.172Z,67.97
2022-08-26T21:20:43.587Z,68.29
2022-08-26T21:25:47.708Z,68.43
2022-08-26T21:30:51.025Z,68.62
2022-08-26T21:35:55.565Z,68.39
2022-08-26T21:41:03.218Z,68.67
2022-08-26T21:46:17.650Z,68.54
2022-08-26T21:51:24.795Z,68.92
2022-08-26T21:56:31.787Z,69.28
2022-08-26T22:01:36.372Z,69.29
2022-08-26T22:06:51.072Z,69.53
2022-08-26T22:11:57.047Z,69.51
2022-08-26T22:17:00.894Z,69.75
2022-08-26T22:22:04.283Z,69.92
2022-08-26T22:27:07.850Z,70.16
2022-08-26T22:32:11.478Z,70.29
2022-08-26T22:37:14.964Z,70.47
2022-08-26T22:42:18.236Z,70.62
2022-08-26T22:47:21.753Z,70.75
2022-08-26T22:52:25.376Z,70.93
2022-08-26T22:57:28.686Z,70.61
2022-08-26T23:02:31.933Z,70.78
2022-08-26T23:07:36.739Z,70.75
2022-08-26T23:12:40.290Z,70.79
2022-08-26T23:17:43.568Z,71.04
2022-08-26T23:22:46.896Z,71.28
2022-08-26T23:27:50.595Z,71.33
2022-08-26T23:32:54.836Z,71.45
2022-08-26T23:37:58.939Z,71.46
2022-08-26T23:43:06.760Z,71.27
2022-08-26T23:48:10.179Z,71.57
2022-08-26T23:53:20.375Z,71.76
2022-08-26T23:58:24.194Z,72.12
